createdAt,value
2022-10-25T00:00:39.119Z,56.30
2022-10-25T00:05:54.153Z,56.20
2022-10-25T00:11:09.143Z,56.30
2022-10-25T00:16:24.183Z,56.40
2022-10-25T00:21:39.162Z,56.40
2022-10-25T00:26:54.209Z,56.70
2022-10-25T00:32:10.483Z,56.70
2022-10-25T00:37:26.505Z,56.60
2022-10-25T00:42:42.221Z,56.50
2022-10-25T00:47:57.469Z,56.50
2022-10-25T00:53:13.133Z,57.20
2022-10-25T00:58:28.482Z,56.50
2022-10-25T01:03:44.227Z,56.30
2022-10-25T01:08:59.451Z,56.40
2022-10-25T01:14:15.492Z,56.20
2022-10-25T01:19:31.293Z,56.20
2022-10-25T01:24:46.202Z,56.20
2022-10-25T01:30:01.140Z,56.30
2022-10-25T01:35:16.479Z,56.30
2022-10-25T01:40:32.484Z,56.30
2022-10-25T01:45:48.123Z,56.20
2022-10-25T01:51:03.138Z,56.20
2022-10-25T01:56:18.229Z,56.20
2022-10-25T02:01:33.318Z,56.10
2022-10-25T02:06:49.103Z,56.10
2022-10-25T02:12:04.134Z,56.00
2022-10-25T02:17:19.143Z,55.90
2022-10-25T02:22:34.162Z,55.90
2022-10-25T02:27:49.391Z,55.80
2022-10-25T02:33:05.169Z,55.90
2022-10-25T02:38:20.196Z,55.90
2022-10-25T02:43:35.168Z,55.90
2022-10-25T02:48:50.143Z,56.60
2022-10-25T02:54:05.167Z,56.10
2022-10-25T02:59:20.200Z,55.90
2022-10-25T03:04:35.556Z,55.90
2022-10-25T03:09:51.130Z,56.00
2022-10-25T03:15:06.433Z,55.90
2022-10-25T03:20:22.187Z,55.90
2022-10-25T03:25:37.544Z,56.30
2022-10-25T03:30:53.154Z,55.90
2022-10-25T03:36:08.455Z,55.90
2022-10-25T03:41:24.270Z,56.50
2022-10-25T03:46:39.185Z,55.60
2022-10-25T03:51:57.815Z,55.40
2022-10-25T03:57:15.257Z,55.40
2022-10-25T04:02:30.145Z,55.30
2022-10-25T04:07:45.513Z,55.20
2022-10-25T04:13:01.251Z,55.30
2022-10-25T04:18:16.522Z,55.40
2022-10-25T04:23:32.483Z,55.40
2022-10-25T04:28:48.156Z,55.40
2022-10-25T04:34:03.150Z,57.10
2022-10-25T04:39:18.238Z,57.70
2022-10-25T04:44:34.163Z,56.70
2022-10-25T04:49:49.482Z,56.70
2022-10-25T04:55:05.262Z,56.70
2022-10-25T05:00:20.448Z,56.60
2022-10-25T05:05:36.147Z,56.70
2022-10-25T05:10:51.346Z,56.70
2022-10-25T05:16:06.204Z,56.70
2022-10-25T05:21:21.562Z,56.60
2022-10-25T05:26:37.444Z,56.60
2022-10-25T05:31:53.481Z,56.60
2022-10-25T05:37:09.258Z,56.60
2022-10-25T05:42:24.175Z,56.70
2022-10-25T05:47:39.324Z,56.80
2022-10-25T05:52:54.179Z,56.80
2022-10-25T05:58:08.978Z,56.80
2022-10-25T06:03:24.486Z,56.80
2022-10-25T06:08:40.392Z,56.60
2022-10-25T06:13:55.268Z,56.60
2022-10-25T06:19:09.949Z,56.80
2022-10-25T06:24:25.165Z,56.90
2022-10-25T06:29:40.207Z,57.00
2022-10-25T06:34:55.520Z,57.00
2022-10-25T06:40:11.253Z,57.20
2022-10-25T06:45:26.158Z,57.30
2022-10-25T06:50:41.161Z,57.30
2022-10-25T06:55:57.312Z,57.20
2022-10-25T07:01:15.333Z,57.20
2022-10-25T07:11:45.152Z,57.10
2022-10-25T07:17:00.587Z,56.90
2022-10-25T07:22:16.185Z,56.90
2022-10-25T07:27:31.214Z,57.00
2022-10-25T07:32:46.183Z,56.90
2022-10-25T07:38:01.280Z,57.00
2022-10-25T07:43:16.241Z,57.00
2022-10-25T07:48:31.277Z,57.00
2022-10-25T07:53:46.171Z,56.90
2022-10-25T07:59:01.204Z,57.00
2022-10-25T08:04:16.171Z,57.30
2022-10-25T08:09:38.441Z,57.10
2022-10-25T08:14:54.216Z,57.10
2022-10-25T08:20:09.177Z,57.00
2022-10-25T08:25:26.226Z,56.80
2022-10-25T08:30:42.179Z,56.90
2022-10-25T08:35:57.218Z,56.90
2022-10-25T08:41:12.182Z,57.00
2022-10-25T08:46:27.497Z,57.00
2022-10-25T08:51:43.484Z,57.00
2022-10-25T08:57:14.667Z,57.10
2022-10-25T09:02:30.352Z,57.20
2022-10-25T09:07:46.450Z,57.10
2022-10-25T09:13:04.810Z,57.00
2022-10-25T09:18:23.169Z,57.00
2022-10-25T09:23:38.490Z,57.00
2022-10-25T09:28:54.213Z,56.90
2022-10-25T09:34:09.506Z,57.00
2022-10-25T09:39:25.507Z,56.90
2022-10-25T09:44:41.006Z,56.90
2022-10-25T09:49:56.239Z,56.90
2022-10-25T09:55:11.182Z,56.90
2022-10-25T10:00:26.229Z,56.90
2022-10-25T10:05:41.214Z,56.90
2022-10-25T10:10:56.201Z,56.90
2022-10-25T10:16:11.200Z,56.90
2022-10-25T10:21:26.216Z,56.90
2022-10-25T10:26:41.171Z,56.90
2022-10-25T10:31:56.210Z,56.90
2022-10-25T10:37:11.192Z,56.90
2022-10-25T10:42:26.306Z,56.90
2022-10-25T10:47:41.517Z,56.80
2022-10-25T10:52:59.753Z,56.80
2022-10-25T10:58:16.484Z,56.80
2022-10-25T11:03:32.180Z,56.80
2022-10-25T11:08:47.528Z,56.80
2022-10-25T11:14:03.553Z,56.80
2022-10-25T11:19:19.216Z,56.80
2022-10-25T11:24:34.499Z,56.70
2022-10-25T11:29:50.500Z,56.70
2022-10-25T11:35:06.528Z,56.70
2022-10-25T11:40:22.225Z,56.70
2022-10-25T11:45:37.205Z,56.70
2022-10-25T11:50:52.195Z,56.70
2022-10-25T11:56:07.187Z,56.70
2022-10-25T12:01:22.537Z,56.60
2022-10-25T12:06:38.214Z,56.60
2022-10-25T12:11:53.201Z,56.50
2022-10-25T12:17:08.530Z,56.50
2022-10-25T12:22:24.201Z,56.50
2022-10-25T12:27:39.588Z,56.50
2022-10-25T12:32:55.212Z,56.40
2022-10-25T12:38:10.569Z,56.40
2022-10-25T12:43:26.192Z,56.30
2022-10-25T12:48:41.192Z,56.30
2022-10-25T12:53:56.233Z,56.20
2022-10-25T12:59:11.245Z,56.20
2022-10-25T13:04:26.246Z,56.20
2022-10-25T13:09:41.447Z,56.10
2022-10-25T13:14:57.204Z,56.00
2022-10-25T13:20:12.273Z,56.00
2022-10-25T13:25:27.216Z,56.00
2022-10-25T13:30:42.288Z,56.00
2022-10-25T13:35:57.277Z,56.00
2022-10-25T13:41:12.192Z,56.00
2022-10-25T13:46:27.205Z,56.10
2022-10-25T13:51:42.501Z,56.00
2022-10-25T13:56:58.535Z,56.00
2022-10-25T14:02:14.271Z,56.00
2022-10-25T14:07:29.215Z,56.10
2022-10-25T14:12:44.262Z,56.20
2022-10-25T14:17:59.200Z,56.40
2022-10-25T14:23:14.257Z,56.50
2022-10-25T14:28:29.056Z,56.50
2022-10-25T14:33:44.622Z,56.50
2022-10-25T14:39:00.215Z,56.60
2022-10-25T14:44:15.274Z,56.60
2022-10-25T14:49:30.220Z,56.60
2022-10-25T14:54:45.272Z,56.50
2022-10-25T15:00:00.554Z,56.30
2022-10-25T15:05:16.279Z,56.30
2022-10-25T15:10:31.224Z,56.00
2022-10-25T15:15:46.476Z,55.70
2022-10-25T15:21:02.022Z,55.60
2022-10-25T15:26:17.217Z,55.50
2022-10-25T15:31:32.165Z,55.40
2022-10-25T15:36:47.222Z,55.40
2022-10-25T15:42:02.219Z,55.20
2022-10-25T15:47:17.215Z,55.10
2022-10-25T15:52:32.316Z,55.10
2022-10-25T15:57:47.590Z,55.10
2022-10-25T16:03:03.270Z,55.10
2022-10-25T16:13:50.019Z,55.30
2022-10-25T16:19:05.244Z,55.40
2022-10-25T16:24:20.015Z,55.40
2022-10-25T16:29:34.991Z,55.60
2022-10-25T16:34:50.274Z,55.80
2022-10-25T16:40:05.233Z,56.00
2022-10-25T16:45:20.214Z,56.20
2022-10-25T16:50:35.221Z,56.30
2022-10-25T16:55:49.967Z,56.40
2022-10-25T17:01:05.407Z,56.60
2022-10-25T17:06:41.366Z,56.60
2022-10-25T17:11:56.590Z,56.60
2022-10-25T17:17:12.252Z,56.60
2022-10-25T17:22:27.215Z,56.70
2022-10-25T17:27:42.241Z,56.70
2022-10-25T17:32:57.231Z,56.70
2022-10-25T17:38:50.247Z,56.70
2022-10-25T17:44:05.260Z,56.70
2022-10-25T17:49:20.200Z,56.70
2022-10-25T17:54:35.214Z,56.70
2022-10-25T17:59:50.676Z,56.80
2022-10-25T18:05:19.939Z,56.70
2022-10-25T18:10:36.730Z,56.80
2022-10-25T18:15:52.229Z,56.80
2022-10-25T18:21:07.301Z,56.80
2022-10-25T18:26:22.267Z,56.80
2022-10-25T18:31:37.017Z,56.80
2022-10-25T18:36:52.552Z,56.80
2022-10-25T18:42:08.244Z,56.70
2022-10-25T18:47:23.255Z,56.70
2022-10-25T18:52:38.280Z,56.70
2022-10-25T18:57:53.238Z,56.70
2022-10-25T19:03:08.222Z,56.60
2022-10-25T19:08:23.618Z,56.50
2022-10-25T19:13:39.238Z,56.50
2022-10-25T19:18:54.223Z,56.50
2022-10-25T19:24:09.301Z,56.50
2022-10-25T19:29:24.258Z,56.80
2022-10-25T19:34:39.650Z,57.00
2022-10-25T19:39:58.181Z,57.20
2022-10-25T19:45:14.262Z,57.40
2022-10-25T19:50:29.271Z,57.40
2022-10-25T19:55:44.219Z,57.30
2022-10-25T20:00:59.287Z,57.10
2022-10-25T20:06:15.082Z,57.00
2022-10-25T20:11:30.305Z,56.90
2022-10-25T20:16:45.993Z,56.80
2022-10-25T20:22:01.296Z,56.70
2022-10-25T20:27:17.452Z,56.90
2022-10-25T20:32:33.614Z,56.90
2022-10-25T20:37:49.551Z,56.70
2022-10-25T20:43:05.228Z,56.60
2022-10-25T20:48:20.257Z,56.30
2022-10-25T20:53:35.285Z,56.30
2022-10-25T20:58:50.238Z,56.30
2022-10-25T21:04:05.253Z,56.20
2022-10-25T21:09:20.225Z,56.10
2022-10-25T21:14:35.634Z,56.00
2022-10-25T21:19:51.304Z,56.00
2022-10-25T21:25:06.284Z,55.80
2022-10-25T21:30:21.555Z,55.80
2022-10-25T21:35:37.234Z,55.70
2022-10-25T21:40:52.248Z,55.80
2022-10-25T21:46:07.231Z,55.70
2022-10-25T21:51:22.564Z,55.50
2022-10-25T21:56:38.217Z,55.30
2022-10-25T22:01:53.684Z,55.20
2022-10-25T22:07:09.234Z,55.20
2022-10-25T22:12:24.283Z,55.30
2022-10-25T22:17:39.277Z,55.40
2022-10-25T22:22:54.319Z,55.50
2022-10-25T22:28:09.305Z,55.40
2022-10-25T22:33:24.610Z,55.60
2022-10-25T22:38:40.270Z,55.70
2022-10-25T22:43:55.555Z,55.70
2022-10-25T22:49:11.216Z,55.50
2022-10-25T22:54:26.559Z,55.60
2022-10-25T22:59:42.562Z,55.30
2022-10-25T23:04:58.558Z,55.10
2022-10-25T23:10:14.537Z,55.00
2022-10-25T23:15:30.261Z,54.90
2022-10-25T23:20:45.241Z,54.90
2022-10-25T23:26:00.333Z,55.40
2022-10-25T23:31:15.250Z,54.80
2022-10-25T23:36:30.270Z,54.70
2022-10-25T23:41:45.570Z,54.60
2022-10-25T23:47:01.236Z,54.60
2022-10-25T23:52:16.552Z,54.50
2022-10-25T23:57:32.229Z,54.50
